Clermont, Canada
Current Conditions -  °F | °C
As of 9:00 AM on Tuesday 27 Jan 2015 (Local Time) from CYBG Reporting Station
Broken Clouds Broken Clouds  
Wind Chill: -33°   Ceiling: 18000
Heat Index: -18°   Visibility: 20mi
Dew Point: -26°   Wind: 6mph
Humidity: 70%   Direction: 270°W
Pressure: 30.34"   Gusts: NA
Location:  47.68°N, 70.23°W
Report Text: CYBG 271400Z 27005KT 20SM BKN180 BKN220 M28/M32 A3034 RMK AS4CI1 SUN DIMLY VISBL SLP296
Loading
Personal Weather Stations






























Interactive Weather Map New forecast layout! Learn more

10-Day Weather Forecast

Advertisements
Track Severe Weather on mobile